GLOGT EGPF-EKCH
Flight info
| Callsign | GLOGT |
|---|---|
| Flight time | 1h 34m |
| Altitude | 45000 |
| Route | NORBO Y96 HAVEN DCT SURAT DCT PETIL DCT TESPI |
| Aircraft | GLF6/M-SBDE2E3FGHIJ4J5M1RWXY/LB1D1 |
Departure
| Time | 2026-04-25 14:51 |
|---|---|
| Airport | Glasgow Airport (EGPF) |
Arrival
| Time | 2026-04-25 16:25 |
|---|---|
| Airport | Copenhagen Kastrup Airport (EKCH) |
| Time | Latitude | Longitude | Altitude | Speed | Heading |
|---|---|---|---|---|---|
| 2026-04-25 14:29 | 55.87061 | -4.42621 | 23 ft | 0 kts | 147° |
| 2026-04-25 14:46 | 55.87059 | -4.42618 | 23 ft | 0 kts | 140° |
| 2026-04-25 14:46 | 55.87026 | -4.42615 | 23 ft | 4 kts | 265° |
| 2026-04-25 14:46 | 55.87027 | -4.42661 | 23 ft | 3 kts | 282° |
| 2026-04-25 14:46 | 55.87030 | -4.42688 | 23 ft | 0 kts | 282° |
| 2026-04-25 14:47 | 55.87030 | -4.42690 | 23 ft | 3 kts | 282° |
| 2026-04-25 14:47 | 55.87035 | -4.42822 | 25 ft | 9 kts | 219° |
| 2026-04-25 14:47 | 55.86963 | -4.42876 | 23 ft | 12 kts | 206° |
| 2026-04-25 14:48 | 55.86892 | -4.42944 | 23 ft | 11 kts | 207° |
| 2026-04-25 14:48 | 55.86840 | -4.43039 | 23 ft | 11 kts | 234° |
| 2026-04-25 14:48 | 55.86819 | -4.43196 | 25 ft | 14 kts | 256° |
| 2026-04-25 14:48 | 55.86776 | -4.43460 | 24 ft | 24 kts | 252° |
| 2026-04-25 14:49 | 55.86726 | -4.43759 | 24 ft | 26 kts | 244° |
| 2026-04-25 14:49 | 55.86610 | -4.43987 | 23 ft | 24 kts | 228° |
| 2026-04-25 14:49 | 55.86495 | -4.44200 | 23 ft | 23 kts | 226° |
| 2026-04-25 14:49 | 55.86386 | -4.44401 | 23 ft | 22 kts | 228° |
| 2026-04-25 14:50 | 55.86317 | -4.44532 | 23 ft | 21 kts | 226° |
| 2026-04-25 14:50 | 55.86297 | -4.44798 | 23 ft | 19 kts | 315° |
| 2026-04-25 14:50 | 55.86402 | -4.44813 | 23 ft | 17 kts | 47° |
| 2026-04-25 14:50 | 55.86414 | -4.44789 | 23 ft | 10 kts | 46° |
| 2026-04-25 14:51 | 55.86636 | -4.44375 | 23 ft | 83 kts | 46° |
| 2026-04-25 14:51 | 55.87206 | -4.43313 | 26 ft | 152 kts | 46° |
| 2026-04-25 14:51 | 55.88013 | -4.41764 | 477 ft | 188 kts | 48° |
| 2026-04-25 14:51 | 55.88913 | -4.40025 | 990 ft | 185 kts | 48° |
| 2026-04-25 14:52 | 55.89817 | -4.38276 | 897 ft | 192 kts | 49° |
| 2026-04-25 14:52 | 55.90702 | -4.36536 | 914 ft | 186 kts | 48° |
| 2026-04-25 14:52 | 55.91563 | -4.34953 | 1457 ft | 175 kts | 44° |
| 2026-04-25 14:52 | 55.92186 | -4.33958 | 1973 ft | 186 kts | 45° |
| 2026-04-25 14:53 | 55.93574 | -4.32129 | 2933 ft | 198 kts | 20° |
| 2026-04-25 14:53 | 55.95005 | -4.31683 | 3744 ft | 223 kts | 358° |
| 2026-04-25 14:53 | 55.96566 | -4.32453 | 4569 ft | 246 kts | 330° |
| 2026-04-25 14:53 | 55.97822 | -4.34487 | 5370 ft | 242 kts | 301° |
| 2026-04-25 14:54 | 55.98386 | -4.37355 | 6049 ft | 254 kts | 277° |
| 2026-04-25 14:54 | 55.98217 | -4.40513 | 5979 ft | 259 kts | 251° |
| 2026-04-25 14:54 | 55.97447 | -4.43383 | 5998 ft | 256 kts | 242° |
| 2026-04-25 14:54 | 55.96597 | -4.46174 | 5993 ft | 256 kts | 243° |
| 2026-04-25 14:55 | 55.95811 | -4.49017 | 6003 ft | 255 kts | 245° |
| 2026-04-25 14:55 | 55.94804 | -4.51623 | 6014 ft | 257 kts | 227° |
| 2026-04-25 14:55 | 55.93534 | -4.53880 | 6083 ft | 258 kts | 227° |
| 2026-04-25 14:55 | 55.92298 | -4.56210 | 6165 ft | 258 kts | 227° |
| 2026-04-25 14:56 | 55.91072 | -4.58417 | 6833 ft | 252 kts | 226° |
| 2026-04-25 14:56 | 55.89803 | -4.60689 | 7609 ft | 257 kts | 226° |
| 2026-04-25 14:56 | 55.88548 | -4.62963 | 8381 ft | 263 kts | 226° |
| 2026-04-25 14:56 | 55.87261 | -4.65273 | 9180 ft | 259 kts | 226° |
| 2026-04-25 14:57 | 55.85925 | -4.67464 | 9940 ft | 274 kts | 217° |
| 2026-04-25 14:57 | 55.84291 | -4.69285 | 10636 ft | 297 kts | 210° |
| 2026-04-25 14:57 | 55.82424 | -4.71204 | 11366 ft | 323 kts | 211° |
| 2026-04-25 14:57 | 55.80443 | -4.73276 | 12099 ft | 329 kts | 207° |
| 2026-04-25 14:58 | 55.78282 | -4.74619 | 12811 ft | 335 kts | 194° |
| 2026-04-25 14:58 | 55.75959 | -4.75181 | 13546 ft | 335 kts | 182° |
| 2026-04-25 14:58 | 55.73602 | -4.75303 | 14268 ft | 344 kts | 182° |
| 2026-04-25 14:58 | 55.71211 | -4.75498 | 14934 ft | 342 kts | 183° |
| 2026-04-25 14:59 | 55.68817 | -4.75460 | 15608 ft | 349 kts | 174° |
| 2026-04-25 14:59 | 55.66443 | -4.74518 | 16315 ft | 350 kts | 163° |
| 2026-04-25 14:59 | 55.64203 | -4.72737 | 17040 ft | 358 kts | 151° |
| 2026-04-25 14:59 | 55.62180 | -4.70121 | 17784 ft | 362 kts | 139° |
| 2026-04-25 15:00 | 55.60497 | -4.66772 | 18543 ft | 370 kts | 127° |
| 2026-04-25 15:00 | 55.59226 | -4.62750 | 19262 ft | 377 kts | 115° |
| 2026-04-25 15:00 | 55.58479 | -4.58294 | 19994 ft | 380 kts | 102° |
| 2026-04-25 15:00 | 55.58160 | -4.53677 | 20741 ft | 386 kts | 98° |
| 2026-04-25 15:01 | 55.57850 | -4.48935 | 21507 ft | 390 kts | 98° |
| 2026-04-25 15:01 | 55.57533 | -4.44165 | 22288 ft | 392 kts | 98° |
| 2026-04-25 15:01 | 55.57222 | -4.39342 | 23098 ft | 399 kts | 98° |
| 2026-04-25 15:01 | 55.56903 | -4.34448 | 23897 ft | 401 kts | 98° |
| 2026-04-25 15:02 | 55.56576 | -4.29544 | 24590 ft | 405 kts | 98° |
| 2026-04-25 15:02 | 55.56240 | -4.24565 | 25305 ft | 409 kts | 98° |
| 2026-04-25 15:02 | 55.56014 | -4.21193 | 25795 ft | 409 kts | 98° |
| 2026-04-25 15:02 | 55.55676 | -4.16188 | 26539 ft | 414 kts | 98° |
| 2026-04-25 15:03 | 55.55331 | -4.11109 | 27302 ft | 419 kts | 98° |
| 2026-04-25 15:03 | 55.54986 | -4.06068 | 28076 ft | 420 kts | 98° |
| 2026-04-25 15:03 | 55.54625 | -4.00847 | 28889 ft | 426 kts | 98° |
| 2026-04-25 15:03 | 55.54264 | -3.95629 | 29725 ft | 431 kts | 98° |
| 2026-04-25 15:04 | 55.53900 | -3.90415 | 30522 ft | 436 kts | 98° |
| 2026-04-25 15:04 | 55.53526 | -3.85082 | 31259 ft | 440 kts | 98° |
| 2026-04-25 15:04 | 55.53146 | -3.79698 | 32015 ft | 444 kts | 98° |
| 2026-04-25 15:04 | 55.52766 | -3.74345 | 32781 ft | 447 kts | 98° |
| 2026-04-25 15:05 | 55.52379 | -3.68945 | 33558 ft | 449 kts | 98° |
| 2026-04-25 15:05 | 55.51984 | -3.63465 | 34355 ft | 451 kts | 98° |
| 2026-04-25 15:05 | 55.51586 | -3.57971 | 35066 ft | 452 kts | 98° |
| 2026-04-25 15:06 | 55.50783 | -3.46976 | 36552 ft | 451 kts | 98° |
| 2026-04-25 15:06 | 55.50376 | -3.41491 | 37320 ft | 449 kts | 98° |
| 2026-04-25 15:06 | 55.49972 | -3.36043 | 38123 ft | 446 kts | 99° |
| 2026-04-25 15:06 | 55.49442 | -3.30681 | 38919 ft | 441 kts | 102° |
| 2026-04-25 15:07 | 55.48871 | -3.25455 | 39572 ft | 436 kts | 102° |
| 2026-04-25 15:07 | 55.48316 | -3.20230 | 40243 ft | 429 kts | 101° |
| 2026-04-25 15:07 | 55.47775 | -3.15057 | 40721 ft | 428 kts | 101° |
| 2026-04-25 15:07 | 55.47223 | -3.09901 | 41052 ft | 430 kts | 102° |
| 2026-04-25 15:08 | 55.46662 | -3.04706 | 41286 ft | 433 kts | 101° |
| 2026-04-25 15:08 | 55.46387 | -2.99402 | 41524 ft | 437 kts | 90° |
| 2026-04-25 15:08 | 55.46650 | -2.94054 | 41796 ft | 440 kts | 80° |
| 2026-04-25 15:08 | 55.47179 | -2.88733 | 42079 ft | 442 kts | 80° |
| 2026-04-25 15:09 | 55.47686 | -2.83370 | 42351 ft | 444 kts | 81° |
| 2026-04-25 15:09 | 55.48193 | -2.77986 | 42621 ft | 446 kts | 80° |
| 2026-04-25 15:09 | 55.49231 | -2.67213 | 43179 ft | 450 kts | 80° |
| 2026-04-25 15:10 | 55.49742 | -2.61754 | 43449 ft | 452 kts | 80° |
| 2026-04-25 15:10 | 55.50255 | -2.56267 | 43734 ft | 454 kts | 80° |
| 2026-04-25 15:10 | 55.51285 | -2.45253 | 44304 ft | 456 kts | 79° |
| 2026-04-25 15:11 | 55.51795 | -2.39718 | 44593 ft | 457 kts | 79° |
| 2026-04-25 15:11 | 55.52305 | -2.34164 | 44882 ft | 458 kts | 79° |
| 2026-04-25 15:11 | 55.52813 | -2.28612 | 45146 ft | 458 kts | 79° |
| 2026-04-25 15:12 | 55.53836 | -2.17367 | 45264 ft | 469 kts | 80° |
| 2026-04-25 15:12 | 55.54352 | -2.11638 | 45281 ft | 476 kts | 80° |
| 2026-04-25 15:12 | 55.55222 | -2.01914 | 45282 ft | 488 kts | 80° |
| 2026-04-25 15:13 | 55.57007 | -1.81669 | 45286 ft | 511 kts | 80° |
| 2026-04-25 15:14 | 55.58093 | -1.69153 | 45287 ft | 525 kts | 80° |
| 2026-04-25 15:14 | 55.59201 | -1.56217 | 45288 ft | 540 kts | 80° |
| 2026-04-25 15:15 | 55.60329 | -1.42885 | 45285 ft | 555 kts | 80° |
| 2026-04-25 15:15 | 55.61472 | -1.29178 | 45280 ft | 571 kts | 80° |
| 2026-04-25 15:16 | 55.62630 | -1.15102 | 45267 ft | 584 kts | 81° |
| 2026-04-25 15:16 | 55.64382 | -0.93392 | 45296 ft | 601 kts | 81° |
| 2026-04-25 15:17 | 55.66105 | -0.71527 | 45258 ft | 587 kts | 81° |
| 2026-04-25 15:17 | 55.66651 | -0.64487 | 45284 ft | 567 kts | 81° |
| 2026-04-25 15:18 | 55.67175 | -0.57664 | 45271 ft | 551 kts | 81° |
| 2026-04-25 15:18 | 55.68687 | -0.37786 | 45260 ft | 542 kts | 81° |
| 2026-04-25 15:19 | 55.69510 | -0.26761 | 45267 ft | 543 kts | 81° |
| 2026-04-25 15:19 | 55.70651 | -0.11246 | 45270 ft | 542 kts | 81° |
| 2026-04-25 15:20 | 55.71611 | 0.02034 | 45272 ft | 543 kts | 81° |
| 2026-04-25 15:20 | 55.72558 | 0.15344 | 45274 ft | 544 kts | 81° |
| 2026-04-25 15:21 | 55.73491 | 0.28659 | 45274 ft | 544 kts | 81° |
| 2026-04-25 15:21 | 55.74412 | 0.41996 | 45279 ft | 544 kts | 81° |
| 2026-04-25 15:22 | 55.75313 | 0.55271 | 45273 ft | 545 kts | 81° |
| 2026-04-25 15:22 | 55.76205 | 0.68638 | 45273 ft | 545 kts | 81° |
| 2026-04-25 15:23 | 55.77084 | 0.82026 | 45268 ft | 546 kts | 81° |
| 2026-04-25 15:23 | 55.77948 | 0.95426 | 45264 ft | 546 kts | 82° |
| 2026-04-25 15:24 | 55.78799 | 1.08851 | 45262 ft | 546 kts | 82° |
| 2026-04-25 15:24 | 55.79495 | 1.20024 | 45262 ft | 547 kts | 82° |
| 2026-04-25 15:25 | 55.80458 | 1.35737 | 45264 ft | 547 kts | 82° |
| 2026-04-25 15:25 | 55.81266 | 1.49197 | 45255 ft | 548 kts | 82° |
| 2026-04-25 15:26 | 55.82061 | 1.62671 | 45253 ft | 548 kts | 82° |
| 2026-04-25 15:26 | 55.82836 | 1.76079 | 45251 ft | 548 kts | 82° |
| 2026-04-25 15:27 | 55.83601 | 1.89580 | 45249 ft | 549 kts | 82° |
| 2026-04-25 15:28 | 55.84723 | 2.09871 | 45248 ft | 549 kts | 82° |
| 2026-04-25 15:28 | 55.85453 | 2.23409 | 45243 ft | 550 kts | 82° |
| 2026-04-25 15:29 | 55.86169 | 2.36980 | 45240 ft | 550 kts | 82° |
| 2026-04-25 15:29 | 55.86866 | 2.50467 | 45243 ft | 550 kts | 82° |
| 2026-04-25 15:30 | 55.87552 | 2.64050 | 45237 ft | 551 kts | 82° |
| 2026-04-25 15:30 | 55.88225 | 2.77651 | 45232 ft | 552 kts | 82° |
| 2026-04-25 15:31 | 55.88884 | 2.91284 | 45227 ft | 552 kts | 82° |
| 2026-04-25 15:31 | 55.89527 | 3.04921 | 45223 ft | 552 kts | 82° |
| 2026-04-25 15:32 | 55.90156 | 3.18575 | 45215 ft | 553 kts | 82° |
| 2026-04-25 15:32 | 55.90770 | 3.32242 | 45205 ft | 554 kts | 82° |
| 2026-04-25 15:33 | 55.91617 | 3.52795 | 45188 ft | 555 kts | 85° |
| 2026-04-25 15:33 | 55.91884 | 3.66551 | 45193 ft | 555 kts | 85° |
| 2026-04-25 15:34 | 55.92171 | 3.80227 | 45197 ft | 556 kts | 85° |
| 2026-04-25 15:34 | 55.92338 | 3.89459 | 45199 ft | 557 kts | 85° |
| 2026-04-25 15:35 | 55.92781 | 4.14749 | 45199 ft | 557 kts | 85° |
| 2026-04-25 15:36 | 55.93106 | 4.35500 | 45193 ft | 558 kts | 85° |
| 2026-04-25 15:36 | 55.93303 | 4.49362 | 45183 ft | 559 kts | 85° |
| 2026-04-25 15:37 | 55.93484 | 4.63231 | 45182 ft | 560 kts | 85° |
| 2026-04-25 15:37 | 55.93648 | 4.76842 | 45178 ft | 560 kts | 85° |
| 2026-04-25 15:38 | 55.93799 | 4.90728 | 45174 ft | 560 kts | 85° |
| 2026-04-25 15:38 | 55.93938 | 5.04643 | 45170 ft | 561 kts | 85° |
| 2026-04-25 15:39 | 55.94169 | 5.18549 | 45164 ft | 561 kts | 85° |
| 2026-04-25 15:39 | 55.94329 | 5.32459 | 45157 ft | 561 kts | 85° |
| 2026-04-25 15:40 | 55.94446 | 5.41671 | 45158 ft | 561 kts | 85° |
| 2026-04-25 15:40 | 55.94649 | 5.60308 | 45148 ft | 562 kts | 85° |
| 2026-04-25 15:41 | 55.94787 | 5.74158 | 45144 ft | 562 kts | 85° |
| 2026-04-25 15:41 | 55.94903 | 5.88087 | 45136 ft | 562 kts | 86° |
| 2026-04-25 15:42 | 55.95007 | 6.02038 | 45128 ft | 562 kts | 86° |
| 2026-04-25 15:42 | 55.95094 | 6.15971 | 45119 ft | 562 kts | 86° |
| 2026-04-25 15:43 | 55.95166 | 6.29918 | 45118 ft | 561 kts | 86° |
| 2026-04-25 15:43 | 55.95221 | 6.43859 | 45111 ft | 561 kts | 86° |
| 2026-04-25 15:44 | 55.95261 | 6.57783 | 45105 ft | 561 kts | 86° |
| 2026-04-25 15:44 | 55.95285 | 6.71689 | 45101 ft | 560 kts | 86° |
| 2026-04-25 15:45 | 55.95294 | 6.85586 | 45095 ft | 560 kts | 86° |
| 2026-04-25 15:45 | 55.95290 | 6.94881 | 45083 ft | 558 kts | 86° |
| 2026-04-25 15:46 | 55.95264 | 7.13221 | 45069 ft | 553 kts | 86° |
| 2026-04-25 15:46 | 55.95226 | 7.26965 | 45061 ft | 554 kts | 87° |
| 2026-04-25 15:47 | 55.95173 | 7.40723 | 45061 ft | 554 kts | 87° |
| 2026-04-25 15:47 | 55.95104 | 7.54466 | 45058 ft | 554 kts | 87° |
| 2026-04-25 15:48 | 55.95022 | 7.68120 | 45059 ft | 554 kts | 87° |
| 2026-04-25 15:48 | 55.94922 | 7.81958 | 45046 ft | 554 kts | 87° |
| 2026-04-25 15:49 | 55.94808 | 7.95601 | 45016 ft | 554 kts | 87° |
| 2026-04-25 15:49 | 55.94678 | 8.09112 | 44912 ft | 538 kts | 87° |
| 2026-04-25 15:50 | 55.94566 | 8.20268 | 44884 ft | 536 kts | 88° |
| 2026-04-25 15:50 | 55.94413 | 8.33546 | 44816 ft | 535 kts | 88° |
| 2026-04-25 15:51 | 55.94277 | 8.44572 | 44757 ft | 534 kts | 88° |
| 2026-04-25 15:51 | 55.94068 | 8.60053 | 44687 ft | 534 kts | 88° |
| 2026-04-25 15:52 | 55.93876 | 8.73277 | 44615 ft | 533 kts | 88° |
| 2026-04-25 15:52 | 55.93668 | 8.86502 | 44260 ft | 538 kts | 88° |
| 2026-04-25 15:53 | 55.93559 | 8.93212 | 43543 ft | 541 kts | 88° |
| 2026-04-25 15:53 | 55.93443 | 8.99905 | 42823 ft | 540 kts | 88° |
| 2026-04-25 15:53 | 55.93323 | 9.06588 | 42114 ft | 538 kts | 87° |
| 2026-04-25 15:53 | 55.93204 | 9.13247 | 41407 ft | 537 kts | 87° |
| 2026-04-25 15:54 | 55.93083 | 9.19814 | 40712 ft | 536 kts | 86° |
| 2026-04-25 15:54 | 55.92954 | 9.26456 | 40007 ft | 536 kts | 86° |
| 2026-04-25 15:54 | 55.92823 | 9.33085 | 39306 ft | 536 kts | 86° |
| 2026-04-25 15:54 | 55.92690 | 9.39726 | 38590 ft | 536 kts | 86° |
| 2026-04-25 15:55 | 55.92551 | 9.46369 | 37830 ft | 534 kts | 85° |
| 2026-04-25 15:55 | 55.92407 | 9.52972 | 37120 ft | 532 kts | 85° |
| 2026-04-25 15:55 | 55.92264 | 9.59555 | 36418 ft | 530 kts | 84° |
| 2026-04-25 15:55 | 55.92118 | 9.66112 | 35702 ft | 528 kts | 84° |
| 2026-04-25 15:56 | 55.91968 | 9.72664 | 35018 ft | 528 kts | 84° |
| 2026-04-25 15:56 | 55.91814 | 9.79188 | 34326 ft | 527 kts | 83° |
| 2026-04-25 15:56 | 55.91658 | 9.85718 | 33585 ft | 527 kts | 83° |
| 2026-04-25 15:56 | 55.91498 | 9.92226 | 32883 ft | 524 kts | 83° |
| 2026-04-25 15:57 | 55.91334 | 9.98718 | 32184 ft | 522 kts | 83° |
| 2026-04-25 15:57 | 55.91168 | 10.05171 | 31503 ft | 521 kts | 82° |
| 2026-04-25 15:57 | 55.91001 | 10.11602 | 30818 ft | 519 kts | 82° |
| 2026-04-25 15:57 | 55.90831 | 10.18023 | 30134 ft | 518 kts | 82° |
| 2026-04-25 15:58 | 55.90656 | 10.24426 | 29400 ft | 516 kts | 82° |
| 2026-04-25 15:58 | 55.90478 | 10.30787 | 28718 ft | 512 kts | 83° |
| 2026-04-25 15:58 | 55.90304 | 10.36953 | 28064 ft | 509 kts | 83° |
| 2026-04-25 15:58 | 55.90126 | 10.43238 | 27386 ft | 506 kts | 83° |
| 2026-04-25 15:59 | 55.89942 | 10.49485 | 26725 ft | 504 kts | 83° |
| 2026-04-25 15:59 | 55.89524 | 10.55730 | 26037 ft | 513 kts | 92° |
| 2026-04-25 15:59 | 55.88757 | 10.61947 | 25383 ft | 512 kts | 94° |
| 2026-04-25 15:59 | 55.88012 | 10.68134 | 24709 ft | 510 kts | 94° |
| 2026-04-25 16:00 | 55.87279 | 10.74312 | 24021 ft | 510 kts | 94° |
| 2026-04-25 16:00 | 55.87036 | 10.76316 | 23819 ft | 510 kts | 95° |
| 2026-04-25 16:00 | 55.85752 | 10.86619 | 22636 ft | 506 kts | 95° |
| 2026-04-25 16:00 | 55.85000 | 10.92717 | 21969 ft | 503 kts | 95° |
| 2026-04-25 16:01 | 55.84149 | 10.98663 | 21312 ft | 501 kts | 98° |
| 2026-04-25 16:01 | 55.83257 | 11.04635 | 20656 ft | 498 kts | 98° |
| 2026-04-25 16:01 | 55.82385 | 11.10589 | 19999 ft | 496 kts | 98° |
| 2026-04-25 16:01 | 55.81519 | 11.16504 | 19346 ft | 494 kts | 99° |
| 2026-04-25 16:02 | 55.80640 | 11.22392 | 18694 ft | 492 kts | 99° |
| 2026-04-25 16:02 | 55.79761 | 11.28252 | 18038 ft | 490 kts | 99° |
| 2026-04-25 16:02 | 55.78890 | 11.34090 | 17364 ft | 487 kts | 99° |
| 2026-04-25 16:02 | 55.78023 | 11.39872 | 16733 ft | 482 kts | 99° |
| 2026-04-25 16:03 | 55.77424 | 11.45647 | 16082 ft | 469 kts | 89° |
| 2026-04-25 16:03 | 55.77275 | 11.51363 | 15477 ft | 460 kts | 84° |
| 2026-04-25 16:03 | 55.77166 | 11.57006 | 14867 ft | 455 kts | 86° |
| 2026-04-25 16:03 | 55.77038 | 11.62606 | 14264 ft | 450 kts | 86° |
| 2026-04-25 16:04 | 55.76932 | 11.68128 | 13668 ft | 445 kts | 86° |
| 2026-04-25 16:04 | 55.76853 | 11.73587 | 13042 ft | 437 kts | 84° |
| 2026-04-25 16:04 | 55.77185 | 11.78825 | 12618 ft | 417 kts | 72° |
| 2026-04-25 16:04 | 55.77775 | 11.83743 | 12287 ft | 390 kts | 71° |
| 2026-04-25 16:05 | 55.78296 | 11.88240 | 12026 ft | 361 kts | 70° |
| 2026-04-25 16:05 | 55.78832 | 11.92531 | 11772 ft | 352 kts | 69° |
| 2026-04-25 16:05 | 55.79859 | 12.00859 | 11254 ft | 337 kts | 70° |
| 2026-04-25 16:06 | 55.80340 | 12.04881 | 11005 ft | 331 kts | 70° |
| 2026-04-25 16:06 | 55.80818 | 12.08841 | 10753 ft | 325 kts | 70° |
| 2026-04-25 16:06 | 55.81287 | 12.12730 | 10519 ft | 319 kts | 70° |
| 2026-04-25 16:06 | 55.81746 | 12.16557 | 10281 ft | 314 kts | 70° |
| 2026-04-25 16:07 | 55.82195 | 12.20316 | 10039 ft | 308 kts | 71° |
| 2026-04-25 16:07 | 55.82494 | 12.22819 | 9879 ft | 305 kts | 71° |
| 2026-04-25 16:07 | 55.83068 | 12.27662 | 9565 ft | 299 kts | 71° |
| 2026-04-25 16:07 | 55.83376 | 12.31306 | 9301 ft | 300 kts | 82° |
| 2026-04-25 16:08 | 55.83191 | 12.35006 | 9084 ft | 300 kts | 96° |
| 2026-04-25 16:08 | 55.82555 | 12.38529 | 8854 ft | 299 kts | 111° |
| 2026-04-25 16:08 | 55.81514 | 12.41714 | 8638 ft | 296 kts | 122° |
| 2026-04-25 16:08 | 55.80395 | 12.44751 | 8430 ft | 292 kts | 121° |
| 2026-04-25 16:09 | 55.79313 | 12.47775 | 8209 ft | 288 kts | 121° |
| 2026-04-25 16:09 | 55.78224 | 12.50737 | 7996 ft | 284 kts | 122° |
| 2026-04-25 16:09 | 55.77147 | 12.53657 | 7790 ft | 281 kts | 121° |
| 2026-04-25 16:09 | 55.76087 | 12.56552 | 7586 ft | 278 kts | 121° |
| 2026-04-25 16:10 | 55.75037 | 12.59408 | 7370 ft | 275 kts | 121° |
| 2026-04-25 16:10 | 55.74000 | 12.62235 | 7210 ft | 270 kts | 121° |
| 2026-04-25 16:10 | 55.72983 | 12.64990 | 7068 ft | 264 kts | 121° |
| 2026-04-25 16:10 | 55.71988 | 12.67695 | 6904 ft | 260 kts | 121° |
| 2026-04-25 16:11 | 55.71006 | 12.70355 | 6723 ft | 256 kts | 121° |
| 2026-04-25 16:11 | 55.70038 | 12.72977 | 6547 ft | 253 kts | 121° |
| 2026-04-25 16:11 | 55.69081 | 12.75567 | 6366 ft | 250 kts | 121° |
| 2026-04-25 16:11 | 55.68132 | 12.78131 | 6183 ft | 247 kts | 121° |
| 2026-04-25 16:12 | 55.67196 | 12.80669 | 5973 ft | 245 kts | 121° |
| 2026-04-25 16:12 | 55.66267 | 12.83176 | 5796 ft | 242 kts | 121° |
| 2026-04-25 16:12 | 55.65349 | 12.85652 | 5609 ft | 239 kts | 121° |
| 2026-04-25 16:12 | 55.64748 | 12.87278 | 5493 ft | 237 kts | 121° |
| 2026-04-25 16:13 | 55.63544 | 12.90515 | 5246 ft | 234 kts | 121° |
| 2026-04-25 16:13 | 55.62658 | 12.92900 | 5079 ft | 230 kts | 122° |
| 2026-04-25 16:13 | 55.61765 | 12.95204 | 4940 ft | 225 kts | 123° |
| 2026-04-25 16:13 | 55.60888 | 12.97464 | 4765 ft | 221 kts | 122° |
| 2026-04-25 16:14 | 55.60028 | 12.99702 | 4579 ft | 219 kts | 123° |
| 2026-04-25 16:14 | 55.59178 | 13.01907 | 4405 ft | 215 kts | 122° |
| 2026-04-25 16:14 | 55.58343 | 13.04076 | 4219 ft | 212 kts | 123° |
| 2026-04-25 16:14 | 55.57519 | 13.06203 | 4054 ft | 208 kts | 122° |
| 2026-04-25 16:15 | 55.56627 | 13.08178 | 3893 ft | 202 kts | 143° |
| 2026-04-25 16:15 | 55.55378 | 13.08900 | 3760 ft | 182 kts | 195° |
| 2026-04-25 16:15 | 55.54349 | 13.08137 | 3827 ft | 155 kts | 227° |
| 2026-04-25 16:15 | 55.53543 | 13.06863 | 3743 ft | 155 kts | 242° |
| 2026-04-25 16:16 | 55.52829 | 13.05428 | 3645 ft | 160 kts | 234° |
| 2026-04-25 16:16 | 55.51941 | 13.04202 | 3535 ft | 161 kts | 230° |
| 2026-04-25 16:16 | 55.51084 | 13.02974 | 3410 ft | 161 kts | 231° |
| 2026-04-25 16:16 | 55.50206 | 13.01741 | 3291 ft | 161 kts | 231° |
| 2026-04-25 16:17 | 55.49385 | 13.00436 | 3134 ft | 154 kts | 243° |
| 2026-04-25 16:17 | 55.49168 | 12.98793 | 2871 ft | 131 kts | 293° |
| 2026-04-25 16:17 | 55.49783 | 12.97825 | 2952 ft | 119 kts | 330° |
| 2026-04-25 16:17 | 55.50397 | 12.96889 | 2944 ft | 125 kts | 292° |
| 2026-04-25 16:18 | 55.50452 | 12.95364 | 3004 ft | 126 kts | 281° |
| 2026-04-25 16:18 | 55.50516 | 12.94858 | 2962 ft | 125 kts | 296° |
| 2026-04-25 16:18 | 55.51734 | 12.93756 | 2988 ft | 122 kts | 327° |
| 2026-04-25 16:18 | 55.52096 | 12.92511 | 2911 ft | 121 kts | 282° |
| 2026-04-25 16:19 | 55.52292 | 12.91153 | 2964 ft | 115 kts | 303° |
| 2026-04-25 16:19 | 55.52734 | 12.89982 | 3066 ft | 112 kts | 307° |
| 2026-04-25 16:19 | 55.53159 | 12.88859 | 3225 ft | 106 kts | 304° |
| 2026-04-25 16:20 | 55.53981 | 12.86643 | 3302 ft | 108 kts | 305° |
| 2026-04-25 16:20 | 55.54408 | 12.85497 | 2790 ft | 115 kts | 304° |
| 2026-04-25 16:20 | 55.55149 | 12.83185 | 2235 ft | 106 kts | 301° |
| 2026-04-25 16:21 | 55.55517 | 12.82064 | 2006 ft | 105 kts | 303° |
| 2026-04-25 16:21 | 55.55902 | 12.81004 | 1832 ft | 103 kts | 304° |
| 2026-04-25 16:21 | 55.56305 | 12.79939 | 1671 ft | 103 kts | 305° |
| 2026-04-25 16:21 | 55.56700 | 12.78884 | 1509 ft | 102 kts | 306° |
| 2026-04-25 16:22 | 55.57137 | 12.77915 | 1390 ft | 102 kts | 308° |
| 2026-04-25 16:22 | 55.57552 | 12.76868 | 1238 ft | 105 kts | 303° |
| 2026-04-25 16:22 | 55.57904 | 12.75739 | 1112 ft | 105 kts | 297° |
| 2026-04-25 16:22 | 55.58294 | 12.74645 | 979 ft | 105 kts | 307° |
| 2026-04-25 16:23 | 55.58746 | 12.73660 | 896 ft | 102 kts | 306° |
| 2026-04-25 16:23 | 55.59175 | 12.72608 | 733 ft | 110 kts | 305° |
| 2026-04-25 16:23 | 55.59594 | 12.71502 | 631 ft | 107 kts | 302° |
| 2026-04-25 16:23 | 55.59997 | 12.70390 | 501 ft | 108 kts | 303° |
| 2026-04-25 16:24 | 55.60411 | 12.69291 | 379 ft | 106 kts | 302° |
| 2026-04-25 16:24 | 55.60832 | 12.68197 | 217 ft | 107 kts | 302° |
| 2026-04-25 16:24 | 55.61240 | 12.67099 | 71 ft | 106 kts | 302° |
| 2026-04-25 16:24 | 55.61608 | 12.66100 | 18 ft | 84 kts | 302° |
| 2026-04-25 16:25 | 55.61913 | 12.65271 | 11 ft | 76 kts | 303° |
| 2026-04-25 16:25 | 55.62009 | 12.65014 | 14 ft | 72 kts | 303° |
| 2026-04-25 16:25 | 55.62425 | 12.63884 | 13 ft | 61 kts | 303° |
| 2026-04-25 16:25 | 55.62596 | 12.63513 | 1 ft | 22 kts | 346° |
| 2026-04-25 16:26 | 55.62664 | 12.63475 | 14 ft | 11 kts | 326° |
| 2026-04-25 16:26 | 55.62731 | 12.63316 | 11 ft | 16 kts | 324° |
| 2026-04-25 16:26 | 55.62788 | 12.63344 | 12 ft | 7 kts | 36° |
| 2026-04-25 16:26 | 55.62836 | 12.63400 | 14 ft | 8 kts | 33° |
| 2026-04-25 16:27 | 55.62859 | 12.63393 | 16 ft | 3 kts | 316° |
| 2026-04-25 16:27 | 55.62872 | 12.63377 | 16 ft | 0 kts | 322° |